createdAt,value
2019-04-06T00:01:39.250Z,45.97
2019-04-06T00:04:08.901Z,43.97
2019-04-06T00:06:38.495Z,51.63
2019-04-06T00:09:08.301Z,47.50
2019-04-06T00:11:37.855Z,44.17
2019-04-06T00:14:07.622Z,53.77
2019-04-06T00:16:37.173Z,47.13
2019-04-06T00:19:06.701Z,42.63
2019-04-06T00:21:36.262Z,42.97
2019-04-06T00:24:05.899Z,55.30
2019-04-06T00:26:35.402Z,46.57
2019-04-06T00:29:05.043Z,50.13
2019-04-06T00:31:59.429Z,60.83
2019-04-06T00:34:28.995Z,54.33
2019-04-06T00:36:58.515Z,48.60
2019-04-06T00:39:28.114Z,57.03
2019-04-06T00:41:57.626Z,54.27
2019-04-06T00:44:27.113Z,56.93
2019-04-06T00:46:56.737Z,57.87
2019-04-06T00:49:26.294Z,59.63
2019-04-06T00:51:55.950Z,48.97
2019-04-06T00:54:25.456Z,50.90
2019-04-06T00:56:55.086Z,58.83
2019-04-06T00:59:24.609Z,56.87
2019-04-06T01:01:54.162Z,55.20
2019-04-06T01:04:23.809Z,51.33
2019-04-06T01:06:53.394Z,46.13
2019-04-06T01:09:23.042Z,57.80
2019-04-06T01:11:52.609Z,57.67
2019-04-06T01:14:22.161Z,49.27
2019-04-06T01:16:51.663Z,57.57
2019-04-06T01:19:21.462Z,57.37
2019-04-06T01:21:51.041Z,51.77
2019-04-06T01:24:20.691Z,57.53
2019-04-06T01:26:50.234Z,49.73
2019-04-06T01:29:19.637Z,53.67
2019-04-06T01:31:49.163Z,58.23
2019-04-06T01:34:18.688Z,57.77
2019-04-06T01:36:48.282Z,56.50
2019-04-06T01:39:17.900Z,59.30
2019-04-06T01:41:47.349Z,53.73
2019-04-06T01:44:16.809Z,61.20
2019-04-06T01:46:46.369Z,59.03
2019-04-06T01:49:15.897Z,67.80
2019-04-06T01:51:45.426Z,62.03
2019-04-06T01:54:14.968Z,59.00
2019-04-06T01:56:44.492Z,63.70
2019-04-06T01:59:13.938Z,63.23
2019-04-06T02:01:51.716Z,55.37
2019-04-06T02:04:21.325Z,70.20
2019-04-06T02:06:51.032Z,69.60
2019-04-06T02:09:20.595Z,58.00
2019-04-06T02:11:50.144Z,67.70
2019-04-06T02:14:19.637Z,56.67
2019-04-06T02:16:49.274Z,65.90
2019-04-06T02:19:18.797Z,69.83
2019-04-06T02:21:48.303Z,55.70
2019-04-06T02:24:17.848Z,61.27
2019-04-06T02:26:47.380Z,63.10
2019-04-06T02:29:16.912Z,60.67
2019-04-06T02:32:08.210Z,68.47
2019-04-06T02:35:05.609Z,69.00
2019-04-06T02:37:42.453Z,71.70
2019-04-06T02:40:29.918Z,65.43
2019-04-06T02:43:09.240Z,70.10
2019-04-06T02:45:38.862Z,70.83
2019-04-06T02:48:10.128Z,83.30
2019-04-06T02:50:39.936Z,73.20
2019-04-06T02:53:09.586Z,77.90
2019-04-06T02:55:39.130Z,85.10
2019-04-06T02:58:08.813Z,67.00
2019-04-06T03:00:38.490Z,57.37
2019-04-06T03:03:08.130Z,84.57
2019-04-06T03:05:37.668Z,79.87
2019-04-06T03:08:07.186Z,75.03
2019-04-06T03:10:36.728Z,71.20
2019-04-06T03:13:06.248Z,83.23
2019-04-06T03:15:35.835Z,87.03
2019-04-06T03:18:05.424Z,86.47
2019-04-06T03:20:35.042Z,76.07
2019-04-06T03:23:04.662Z,88.70
2019-04-06T03:25:34.243Z,83.07
2019-04-06T03:28:03.706Z,83.53
2019-04-06T03:30:33.432Z,87.83
2019-04-06T03:33:03.085Z,84.00
2019-04-06T03:35:32.906Z,87.93
2019-04-06T03:38:02.547Z,87.57
2019-04-06T03:40:32.160Z,91.27
2019-04-06T03:43:01.863Z,88.27
2019-04-06T03:45:31.541Z,98.87
2019-04-06T03:48:01.069Z,81.00
2019-04-06T03:50:30.675Z,85.77
2019-04-06T03:53:00.204Z,86.50
2019-04-06T03:55:29.845Z,91.87
2019-04-06T03:57:59.469Z,91.57
2019-04-06T04:00:29.146Z,103.97
2019-04-06T04:02:58.958Z,86.07
2019-04-06T04:05:28.503Z,96.77
2019-04-06T04:07:58.100Z,102.90
2019-04-06T04:10:33.553Z,97.33
2019-04-06T04:13:03.176Z,96.47
2019-04-06T04:15:32.806Z,105.70
2019-04-06T04:18:02.670Z,95.90
2019-04-06T04:20:32.404Z,98.47
2019-04-06T04:23:02.125Z,97.97
2019-04-06T04:25:31.745Z,102.57
2019-04-06T04:28:01.326Z,98.33
2019-04-06T04:30:33.628Z,96.13
2019-04-06T04:33:02.417Z,98.47
2019-04-06T04:35:32.053Z,99.70
2019-04-06T04:38:01.771Z,100.30
2019-04-06T04:40:31.384Z,93.80
2019-04-06T04:43:01.219Z,81.50
2019-04-06T04:45:31.051Z,88.47
2019-04-06T04:48:00.690Z,92.00
2019-04-06T04:50:30.359Z,83.57
2019-04-06T04:53:00.007Z,87.37
2019-04-06T04:55:29.557Z,89.37
2019-04-06T04:57:59.129Z,80.57
2019-04-06T05:00:28.905Z,82.57
2019-04-06T05:02:58.637Z,77.40
2019-04-06T05:05:28.146Z,79.90
2019-04-06T05:07:57.732Z,81.57
2019-04-06T05:10:27.308Z,75.10
2019-04-06T05:12:57.077Z,99.97
2019-04-06T05:15:47.953Z,82.00
2019-04-06T05:18:17.935Z,98.73
2019-04-06T05:20:47.754Z,87.87
2019-04-06T05:23:17.579Z,103.73
2019-04-06T05:25:47.422Z,102.97
2019-04-06T05:28:17.269Z,105.43
2019-04-06T05:30:47.056Z,97.07
2019-04-06T05:33:16.827Z,93.13
2019-04-06T05:35:46.546Z,101.07
2019-04-06T05:38:16.188Z,102.50
2019-04-06T05:40:45.857Z,100.63
2019-04-06T05:43:15.688Z,97.20
2019-04-06T05:45:45.492Z,101.77
2019-04-06T05:48:15.268Z,101.77
2019-04-06T05:50:44.896Z,110.33
2019-04-06T05:53:14.649Z,107.37
2019-04-06T05:55:44.252Z,79.97
2019-04-06T05:58:13.965Z,88.13
2019-04-06T06:00:43.638Z,97.13
2019-04-06T06:03:15.361Z,111.97
2019-04-06T06:05:44.545Z,118.03
2019-04-06T06:08:14.348Z,113.83
2019-04-06T06:10:43.911Z,120.73
2019-04-06T06:13:13.448Z,109.53
2019-04-06T06:15:42.862Z,122.53
2019-04-06T06:18:12.265Z,136.00
2019-04-06T06:20:41.617Z,124.13
2019-04-06T06:23:10.956Z,125.30
2019-04-06T06:25:40.305Z,120.67
2019-04-06T06:28:14.986Z,139.17
2019-04-06T06:30:40.742Z,115.00
2019-04-06T06:33:10.096Z,128.60
2019-04-06T06:35:39.578Z,123.90
2019-04-06T06:38:09.188Z,127.90
2019-04-06T06:40:38.777Z,123.07
2019-04-06T06:43:11.304Z,141.10
2019-04-06T06:45:40.722Z,135.97
2019-04-06T06:48:10.093Z,135.70
2019-04-06T06:50:39.416Z,127.13
2019-04-06T06:53:08.765Z,114.90
2019-04-06T06:55:38.107Z,119.17
2019-04-06T06:58:07.752Z,126.40
2019-04-06T07:00:37.223Z,124.87
2019-04-06T07:03:06.815Z,129.30
2019-04-06T07:05:36.204Z,127.17
2019-04-06T07:08:06.106Z,123.60
2019-04-06T07:10:36.778Z,124.40
2019-04-06T07:13:07.776Z,113.13
2019-04-06T07:15:37.177Z,112.47
2019-04-06T07:18:06.564Z,116.37
2019-04-06T07:20:35.962Z,119.87
2019-04-06T07:23:05.437Z,112.40
2019-04-06T07:25:37.061Z,113.30
2019-04-06T07:28:08.136Z,119.73
2019-04-06T07:30:37.751Z,115.03
2019-04-06T07:33:07.350Z,117.80
2019-04-06T07:35:36.841Z,102.87
2019-04-06T07:38:06.400Z,102.13
2019-04-06T07:40:35.917Z,112.53
2019-04-06T07:43:05.754Z,107.60
2019-04-06T07:45:35.290Z,110.57
2019-04-06T07:48:04.855Z,106.00
2019-04-06T07:50:34.457Z,113.03
2019-04-06T07:53:04.202Z,119.23
2019-04-06T07:55:33.746Z,105.17
2019-04-06T07:58:03.080Z,110.97
2019-04-06T08:00:32.675Z,108.10
2019-04-06T08:03:02.029Z,93.17
2019-04-06T08:05:31.356Z,94.93
2019-04-06T08:08:00.843Z,93.73
2019-04-06T08:10:30.399Z,100.87
2019-04-06T08:12:59.708Z,108.57
2019-04-06T08:15:29.067Z,104.17
2019-04-06T08:17:58.464Z,92.30
2019-04-06T08:20:27.862Z,89.43
2019-04-06T08:22:57.190Z,96.93
2019-04-06T08:25:26.659Z,85.07
2019-04-06T08:27:56.329Z,95.47
2019-04-06T08:30:25.668Z,90.90
2019-04-06T08:32:55.057Z,94.20
2019-04-06T08:35:26.332Z,102.53
2019-04-06T08:37:55.455Z,92.10
2019-04-06T08:40:24.757Z,97.13
2019-04-06T08:42:54.115Z,100.20
2019-04-06T08:45:23.507Z,89.33
2019-04-06T08:47:52.917Z,95.13
2019-04-06T08:50:22.554Z,88.47
2019-04-06T08:52:52.228Z,93.97
2019-04-06T08:55:21.555Z,90.67
2019-04-06T08:57:50.880Z,91.43
2019-04-06T09:00:20.298Z,90.77
2019-04-06T09:02:49.661Z,90.73
2019-04-06T09:05:19.039Z,99.23
2019-04-06T09:07:48.357Z,88.43
2019-04-06T09:10:17.668Z,77.80
2019-04-06T09:12:46.993Z,101.43
2019-04-06T09:15:17.858Z,98.87
2019-04-06T09:17:47.207Z,90.87
2019-04-06T09:20:16.664Z,99.43
2019-04-06T09:22:46.076Z,87.87
2019-04-06T09:25:15.419Z,87.33
2019-04-06T09:27:44.756Z,100.10
2019-04-06T09:30:14.141Z,82.23
2019-04-06T09:32:43.601Z,100.33
2019-04-06T09:35:12.924Z,90.43
2019-04-06T09:37:42.254Z,96.53
2019-04-06T09:40:11.692Z,94.97
2019-04-06T09:42:41.012Z,83.90
2019-04-06T09:45:28.479Z,87.77
2019-04-06T09:48:07.425Z,77.80
2019-04-06T09:50:54.827Z,96.67
2019-04-06T09:53:44.737Z,90.40
2019-04-06T09:56:33.099Z,88.20
2019-04-06T09:59:34.759Z,91.67
2019-04-06T10:02:23.505Z,87.40
2019-04-06T10:05:17.878Z,91.67
2019-04-06T10:07:57.236Z,91.17
2019-04-06T10:10:58.057Z,85.50
2019-04-06T10:13:45.163Z,76.27
2019-04-06T10:16:42.501Z,88.67
2019-04-06T10:19:29.651Z,80.77
2019-04-06T10:22:18.371Z,79.00
2019-04-06T10:25:05.718Z,84.53
2019-04-06T10:27:50.769Z,81.07
2019-04-06T10:30:39.354Z,76.50
2019-04-06T10:33:15.591Z,93.67
2019-04-06T10:36:22.563Z,83.47
2019-04-06T10:39:07.030Z,85.37
2019-04-06T10:42:07.415Z,83.00
2019-04-06T10:44:55.656Z,73.33
2019-04-06T10:47:43.947Z,80.07
2019-04-06T10:50:47.482Z,79.87
2019-04-06T10:53:41.777Z,79.03
2019-04-06T10:56:24.595Z,74.73
2019-04-06T10:59:02.865Z,76.30
2019-04-06T11:01:49.660Z,82.83
2019-04-06T11:04:38.006Z,78.53
2019-04-06T11:07:35.620Z,82.77
2019-04-06T11:10:21.799Z,79.27
2019-04-06T11:13:03.486Z,83.50
2019-04-06T11:16:03.902Z,79.70
2019-04-06T11:18:52.200Z,78.57
2019-04-06T11:21:39.235Z,72.80
2019-04-06T11:24:23.153Z,72.27
2019-04-06T11:27:11.695Z,81.60
2019-04-06T11:30:13.990Z,77.10
2019-04-06T11:32:51.433Z,76.33
2019-04-06T11:35:32.526Z,80.80
2019-04-06T11:38:39.196Z,70.27
2019-04-06T11:41:42.824Z,78.53
2019-04-06T11:44:23.772Z,80.03
2019-04-06T11:47:17.867Z,79.00
2019-04-06T11:50:21.480Z,75.67
2019-04-06T11:53:18.224Z,72.53
2019-04-06T11:56:08.217Z,78.30
2019-04-06T11:58:56.839Z,74.43
2019-04-06T12:01:51.548Z,70.40
2019-04-06T12:04:42.632Z,72.17
2019-04-06T12:07:20.764Z,75.60
2019-04-06T12:10:15.161Z,73.30
2019-04-06T12:13:21.825Z,71.20
2019-04-06T12:16:16.180Z,73.70
2019-04-06T12:18:57.143Z,79.17
2019-04-06T12:21:48.616Z,76.13
2019-04-06T12:24:36.906Z,71.87
2019-04-06T12:27:18.469Z,78.70
2019-04-06T12:29:57.781Z,76.03
2019-04-06T12:32:49.128Z,72.77
2019-04-06T12:35:52.587Z,67.20
2019-04-06T12:38:40.865Z,69.93
2019-04-06T12:41:29.157Z,73.83
2019-04-06T12:44:23.361Z,75.77
2019-04-06T12:47:10.294Z,75.73
2019-04-06T12:49:58.574Z,131.20
2019-04-06T12:52:38.174Z,80.90
2019-04-06T12:55:25.438Z,70.63
2019-04-06T12:58:06.369Z,68.23
2019-04-06T13:00:54.367Z,76.37
2019-04-06T13:03:41.735Z,68.97
2019-04-06T13:06:28.705Z,70.90
2019-04-06T13:09:32.331Z,69.00
2019-04-06T13:12:20.679Z,65.47
2019-04-06T13:14:59.738Z,69.13
2019-04-06T13:17:45.017Z,58.20
2019-04-06T13:20:32.451Z,61.73
2019-04-06T13:23:14.317Z,60.13
2019-04-06T13:25:55.794Z,56.67
2019-04-06T13:28:32.127Z,58.30
2019-04-06T13:31:23.553Z,59.63
2019-04-06T13:34:00.351Z,60.37
2019-04-06T13:36:57.643Z,61.97
2019-04-06T13:39:44.675Z,55.47
2019-04-06T13:42:28.456Z,48.90
2019-04-06T13:45:19.811Z,52.47
2019-04-06T13:48:04.613Z,55.20
2019-04-06T13:51:01.093Z,57.20
2019-04-06T13:54:07.947Z,48.23
2019-04-06T13:56:56.198Z,54.13
2019-04-06T13:59:56.687Z,48.37
2019-04-06T14:02:33.914Z,55.33
2019-04-06T14:05:28.434Z,56.17
2019-04-06T14:08:11.234Z,50.57
2019-04-06T14:11:17.664Z,52.63
2019-04-06T14:14:04.673Z,49.17
2019-04-06T14:16:55.693Z,48.53
2019-04-06T14:19:43.263Z,50.57
2019-04-06T14:22:25.347Z,51.93
2019-04-06T14:25:13.707Z,56.13
2019-04-06T14:28:11.143Z,56.80
2019-04-06T14:30:55.506Z,55.30
2019-04-06T14:33:50.498Z,57.93
2019-04-06T14:36:41.839Z,54.87
2019-04-06T14:39:29.173Z,59.33
2019-04-06T14:42:10.277Z,50.50
2019-04-06T14:45:05.032Z,46.67
2019-04-06T14:47:49.358Z,48.53
2019-04-06T14:50:26.404Z,46.93
2019-04-06T14:53:15.458Z,48.23
2019-04-06T14:56:06.599Z,44.03
2019-04-06T14:58:57.955Z,42.70
2019-04-06T15:01:57.123Z,43.90
2019-04-06T15:04:57.295Z,48.50
2019-04-06T15:07:35.731Z,42.97
2019-04-06T15:10:33.973Z,43.20
2019-04-06T15:13:15.416Z,44.03
2019-04-06T15:16:22.264Z,36.20
2019-04-06T15:19:18.013Z,37.07
2019-04-06T15:22:06.665Z,36.40
2019-04-06T15:24:52.796Z,37.23
2019-04-06T15:27:36.377Z,39.97
2019-04-06T15:30:18.192Z,128.87
2019-04-06T15:33:06.746Z,155.70
2019-04-06T15:36:04.192Z,591.77
2019-04-06T15:38:45.181Z,64.00
2019-04-06T15:41:23.384Z,114.60
2019-04-06T15:44:20.899Z,44.57
2019-04-06T15:47:08.168Z,45.63
2019-04-06T15:49:51.541Z,38.40
2019-04-06T15:52:38.763Z,33.70
2019-04-06T15:55:24.930Z,35.67
2019-04-06T15:58:07.219Z,35.13
2019-04-06T16:01:10.966Z,34.57
2019-04-06T16:04:01.785Z,38.73
2019-04-06T16:06:38.229Z,41.60
2019-04-06T16:09:45.573Z,41.07
2019-04-06T16:12:49.573Z,33.53
2019-04-06T16:15:44.166Z,41.10
2019-04-06T16:18:47.567Z,34.63
2019-04-06T16:21:41.689Z,38.73
2019-04-06T16:24:28.862Z,33.30
2019-04-06T16:27:26.938Z,38.73
2019-04-06T16:30:14.265Z,37.93
2019-04-06T16:33:04.895Z,36.83
2019-04-06T16:35:53.785Z,33.60
2019-04-06T16:38:51.460Z,38.23
2019-04-06T16:41:43.820Z,38.70
2019-04-06T16:44:19.331Z,37.17
2019-04-06T16:47:22.934Z,29.97
2019-04-06T16:50:18.056Z,27.43
2019-04-06T16:53:13.970Z,33.67
2019-04-06T16:55:54.927Z,38.13
2019-04-06T16:58:55.355Z,35.20
2019-04-06T17:01:32.459Z,38.40
2019-04-06T17:04:16.762Z,31.33
2019-04-06T17:07:10.083Z,34.23
2019-04-06T17:09:55.674Z,33.30
2019-04-06T17:12:51.353Z,36.97
2019-04-06T17:15:40.115Z,33.67
2019-04-06T17:18:26.337Z,36.33
2019-04-06T17:21:09.347Z,36.70
2019-04-06T17:23:49.237Z,34.87
2019-04-06T17:26:31.524Z,30.33
2019-04-06T17:29:29.108Z,29.43
2019-04-06T17:32:35.471Z,35.60
2019-04-06T17:35:04.571Z,31.97
2019-04-06T17:37:42.961Z,36.13
2019-04-06T17:40:18.933Z,28.63
2019-04-06T17:42:58.327Z,30.97
2019-04-06T17:45:46.170Z,31.97
2019-04-06T17:48:35.006Z,33.40
2019-04-06T17:51:29.352Z,31.10
2019-04-06T17:54:17.735Z,32.23
2019-04-06T17:57:00.401Z,30.87
2019-04-06T18:00:01.008Z,31.60
2019-04-06T18:02:50.823Z,32.70
2019-04-06T18:05:34.486Z,26.77
2019-04-06T18:08:21.981Z,32.40
2019-04-06T18:11:08.822Z,32.07
2019-04-06T18:13:48.118Z,32.80
2019-04-06T18:16:20.078Z,30.63
2019-04-06T18:18:49.887Z,28.10
2019-04-06T18:21:19.897Z,29.80
2019-04-06T18:23:49.460Z,30.37
2019-04-06T18:26:19.244Z,30.53
2019-04-06T18:28:49.330Z,33.03
2019-04-06T18:31:46.807Z,31.47
2019-04-06T18:34:16.475Z,31.73
2019-04-06T18:36:53.376Z,31.87
2019-04-06T18:39:23.360Z,36.00
2019-04-06T18:41:53.551Z,32.10
2019-04-06T18:44:23.090Z,28.93
2019-04-06T18:46:52.901Z,30.07
2019-04-06T18:49:22.787Z,31.37
2019-04-06T18:51:52.398Z,29.63
2019-04-06T18:54:22.200Z,28.80
2019-04-06T18:56:51.699Z,31.23
2019-04-06T18:59:21.124Z,28.50
2019-04-06T19:01:50.835Z,33.13
2019-04-06T19:04:20.384Z,29.13
2019-04-06T19:06:50.358Z,30.77
2019-04-06T19:09:23.812Z,28.37
2019-04-06T19:11:55.829Z,29.47
2019-04-06T19:14:22.522Z,30.47
2019-04-06T19:16:52.486Z,28.50
2019-04-06T19:19:21.952Z,27.80
2019-04-06T19:21:51.490Z,33.30
2019-04-06T19:24:21.313Z,29.70
2019-04-06T19:26:50.937Z,28.83
2019-04-06T19:29:20.348Z,26.37
2019-04-06T19:31:49.778Z,32.20
2019-04-06T19:34:19.368Z,28.03
2019-04-06T19:36:48.864Z,24.80
2019-04-06T19:39:18.712Z,27.87
2019-04-06T19:41:48.366Z,36.57
2019-04-06T19:44:17.870Z,32.03
2019-04-06T19:46:47.827Z,27.50
2019-04-06T19:49:17.766Z,30.50
2019-04-06T19:51:47.760Z,27.87
2019-04-06T19:54:17.609Z,28.03
2019-04-06T19:56:47.576Z,28.70
2019-04-06T19:59:17.370Z,26.00
2019-04-06T20:01:47.082Z,22.13
2019-04-06T20:04:16.823Z,23.80
2019-04-06T20:06:46.684Z,24.40
2019-04-06T20:09:16.210Z,23.80
2019-04-06T20:11:45.844Z,25.23
2019-04-06T20:14:15.299Z,33.13
2019-04-06T20:16:44.828Z,29.17
2019-04-06T20:19:14.294Z,27.97
2019-04-06T20:21:43.889Z,24.97
2019-04-06T20:24:13.298Z,28.33
2019-04-06T20:26:42.932Z,32.67
2019-04-06T20:29:12.687Z,28.50
2019-04-06T20:31:42.914Z,32.40
2019-04-06T20:34:12.470Z,33.63
2019-04-06T20:36:41.965Z,32.77
2019-04-06T20:39:11.521Z,32.47
2019-04-06T20:41:41.438Z,28.97
2019-04-06T20:44:11.051Z,28.40
2019-04-06T20:46:40.946Z,30.30
2019-04-06T20:49:10.877Z,28.37
2019-04-06T20:51:40.679Z,28.53
2019-04-06T20:54:10.640Z,30.57
2019-04-06T20:56:40.208Z,30.23
2019-04-06T20:59:09.757Z,27.67
2019-04-06T21:01:39.245Z,26.73
2019-04-06T21:04:09.213Z,29.73
2019-04-06T21:06:39.129Z,28.00
2019-04-06T21:09:12.930Z,28.37
2019-04-06T21:11:42.382Z,27.27
2019-04-06T21:14:12.302Z,24.77
2019-04-06T21:16:42.291Z,24.93
2019-04-06T21:19:11.864Z,25.10
2019-04-06T21:21:41.401Z,29.30
2019-04-06T21:24:11.491Z,27.80
2019-04-06T21:26:41.589Z,27.50
2019-04-06T21:29:11.375Z,29.00
2019-04-06T21:31:40.911Z,24.87
2019-04-06T21:34:14.216Z,28.83
2019-04-06T21:36:41.665Z,23.77
2019-04-06T21:39:11.104Z,26.73
2019-04-06T21:41:40.711Z,26.40
2019-04-06T21:44:10.242Z,29.20
2019-04-06T21:46:40.343Z,26.60
2019-04-06T21:49:09.813Z,27.27
2019-04-06T21:51:39.273Z,29.83
2019-04-06T21:54:09.286Z,27.37
2019-04-06T21:56:38.800Z,31.80
2019-04-06T21:59:08.205Z,29.77
2019-04-06T22:01:37.709Z,30.90
2019-04-06T22:04:08.063Z,26.30
2019-04-06T22:06:37.993Z,31.27
2019-04-06T22:09:11.154Z,26.77
2019-04-06T22:11:40.625Z,29.60
2019-04-06T22:14:10.018Z,26.83
2019-04-06T22:16:39.419Z,29.23
2019-04-06T22:19:09.429Z,28.10
2019-04-06T22:21:39.509Z,31.37
2019-04-06T22:24:09.523Z,27.87
2019-04-06T22:26:39.372Z,26.47
2019-04-06T22:29:09.172Z,28.40
2019-04-06T22:31:38.551Z,26.67
2019-04-06T22:34:08.085Z,31.23
2019-04-06T22:36:37.533Z,29.13
2019-04-06T22:39:09.021Z,25.83
2019-04-06T22:41:38.966Z,42.53
2019-04-06T22:44:08.564Z,32.03
2019-04-06T22:46:38.098Z,33.40
2019-04-06T22:49:07.859Z,33.33
2019-04-06T22:51:37.929Z,30.90
2019-04-06T22:54:07.993Z,27.13
2019-04-06T22:56:37.460Z,31.00
2019-04-06T22:59:07.307Z,30.00
2019-04-06T23:01:38.956Z,32.60
2019-04-06T23:04:33.801Z,30.23
2019-04-06T23:07:06.654Z,29.40
2019-04-06T23:09:36.057Z,27.47
2019-04-06T23:12:05.444Z,28.23
2019-04-06T23:14:35.111Z,30.70
2019-04-06T23:17:05.231Z,26.93
2019-04-06T23:19:34.751Z,31.50
2019-04-06T23:22:04.583Z,31.00
2019-04-06T23:24:34.062Z,31.07
2019-04-06T23:27:03.543Z,28.80
2019-04-06T23:29:32.881Z,26.23
2019-04-06T23:32:02.701Z,31.07
2019-04-06T23:34:32.144Z,28.60
2019-04-06T23:37:01.525Z,31.00
2019-04-06T23:39:30.891Z,28.57
2019-04-06T23:42:00.325Z,29.43
2019-04-06T23:44:29.709Z,32.83
2019-04-06T23:46:59.113Z,30.47
2019-04-06T23:49:29.105Z,28.70
2019-04-06T23:51:58.748Z,33.27
2019-04-06T23:54:28.853Z,32.20
2019-04-06T23:56:58.292Z,31.10
2019-04-06T23:59:28.115Z,32.03
